sensor_id;sensor_type;location;lat;lon;timestamp;temperature;humidity
48860;DHT22;34679;51.436;-2.518;2023-07-28T00:01:55;16.30;99.90
48860;DHT22;34679;51.436;-2.518;2023-07-28T00:04:21;16.30;99.90
48860;DHT22;34679;51.436;-2.518;2023-07-28T00:06:47;16.30;99.90
48860;DHT22;34679;51.436;-2.518;2023-07-28T00:09:12;16.20;99.90
48860;DHT22;34679;51.436;-2.518;2023-07-28T00:11:38;16.10;99.90
48860;DHT22;34679;51.436;-2.518;2023-07-28T00:14:04;16.10;99.90
48860;DHT22;34679;51.436;-2.518;2023-07-28T00:16:29;16.10;99.90
48860;DHT22;34679;51.436;-2.518;2023-07-28T00:18:55;16.10;99.90
48860;DHT22;34679;51.436;-2.518;2023-07-28T00:21:21;16.00;99.90
48860;DHT22;34679;51.436;-2.518;2023-07-28T00:23:46;16.00;99.90
48860;DHT22;34679;51.436;-2.518;2023-07-28T00:26:12;16.10;99.90
48860;DHT22;34679;51.436;-2.518;2023-07-28T00:28:38;16.10;99.90
48860;DHT22;34679;51.436;-2.518;2023-07-28T00:31:03;16.20;99.90
48860;DHT22;34679;51.436;-2.518;2023-07-28T00:33:29;16.20;99.90
48860;DHT22;34679;51.436;-2.518;2023-07-28T00:35:54;16.20;99.90
48860;DHT22;34679;51.436;-2.518;2023-07-28T00:38:20;16.20;99.90
48860;DHT22;34679;51.436;-2.518;2023-07-28T00:40:46;16.30;99.90
48860;DHT22;34679;51.436;-2.518;2023-07-28T00:43:12;16.30;99.90
48860;DHT22;34679;51.436;-2.518;2023-07-28T00:45:38;16.40;99.90
48860;DHT22;34679;51.436;-2.518;2023-07-28T00:48:12;16.40;99.90
48860;DHT22;34679;51.436;-2.518;2023-07-28T00:50:46;16.40;99.90
48860;DHT22;34679;51.436;-2.518;2023-07-28T00:53:12;16.40;99.90
48860;DHT22;34679;51.436;-2.518;2023-07-28T00:55:38;16.40;99.90
48860;DHT22;34679;51.436;-2.518;2023-07-28T00:58:04;16.40;99.90
48860;DHT22;34679;51.436;-2.518;2023-07-28T01:00:30;16.40;99.90
48860;DHT22;34679;51.436;-2.518;2023-07-28T01:02:56;16.40;99.90
48860;DHT22;34679;51.436;-2.518;2023-07-28T01:05:28;16.50;99.90
48860;DHT22;34679;51.436;-2.518;2023-07-28T01:08:04;16.50;99.90
48860;DHT22;34679;51.436;-2.518;2023-07-28T01:10:32;16.50;99.90
48860;DHT22;34679;51.436;-2.518;2023-07-28T01:12:58;16.50;99.90
48860;DHT22;34679;51.436;-2.518;2023-07-28T01:15:24;16.50;99.90
48860;DHT22;34679;51.436;-2.518;2023-07-28T01:17:50;16.50;99.90
48860;DHT22;34679;51.436;-2.518;2023-07-28T01:20:16;16.50;99.90
48860;DHT22;34679;51.436;-2.518;2023-07-28T01:26:02;16.40;99.90
48860;DHT22;34679;51.436;-2.518;2023-07-28T01:28:30;16.30;99.90
48860;DHT22;34679;51.436;-2.518;2023-07-28T01:30:57;16.30;99.90
48860;DHT22;34679;51.436;-2.518;2023-07-28T01:33:23;16.30;99.90
48860;DHT22;34679;51.436;-2.518;2023-07-28T01:35:49;16.20;99.90
48860;DHT22;34679;51.436;-2.518;2023-07-28T01:38:14;16.10;99.90
48860;DHT22;34679;51.436;-2.518;2023-07-28T01:40:41;16.10;99.90
48860;DHT22;34679;51.436;-2.518;2023-07-28T01:43:07;16.00;99.90
48860;DHT22;34679;51.436;-2.518;2023-07-28T01:45:33;16.00;99.90
48860;DHT22;34679;51.436;-2.518;2023-07-28T01:47:58;16.00;99.90
48860;DHT22;34679;51.436;-2.518;2023-07-28T01:50:24;16.00;99.90
48860;DHT22;34679;51.436;-2.518;2023-07-28T01:52:50;16.00;99.90
48860;DHT22;34679;51.436;-2.518;2023-07-28T01:55:15;16.10;99.90
48860;DHT22;34679;51.436;-2.518;2023-07-28T01:57:51;16.10;99.90
48860;DHT22;34679;51.436;-2.518;2023-07-28T02:00:17;16.30;99.90
48860;DHT22;34679;51.436;-2.518;2023-07-28T02:02:43;16.10;99.90
48860;DHT22;34679;51.436;-2.518;2023-07-28T02:05:09;16.10;99.90
48860;DHT22;34679;51.436;-2.518;2023-07-28T02:07:34;16.10;99.90
48860;DHT22;34679;51.436;-2.518;2023-07-28T02:10:00;16.10;99.90
48860;DHT22;34679;51.436;-2.518;2023-07-28T02:12:26;16.20;99.90
48860;DHT22;34679;51.436;-2.518;2023-07-28T02:14:51;16.20;99.90
48860;DHT22;34679;51.436;-2.518;2023-07-28T02:17:17;16.20;99.90
48860;DHT22;34679;51.436;-2.518;2023-07-28T02:19:42;16.20;99.90
48860;DHT22;34679;51.436;-2.518;2023-07-28T02:22:08;16.20;99.90
48860;DHT22;34679;51.436;-2.518;2023-07-28T02:24:34;16.20;99.90
48860;DHT22;34679;51.436;-2.518;2023-07-28T02:27:00;16.30;99.90
48860;DHT22;34679;51.436;-2.518;2023-07-28T02:29:25;16.30;99.90
48860;DHT22;34679;51.436;-2.518;2023-07-28T02:31:51;16.30;99.90
48860;DHT22;34679;51.436;-2.518;2023-07-28T02:34:17;16.30;99.90
48860;DHT22;34679;51.436;-2.518;2023-07-28T02:36:43;16.30;99.90
48860;DHT22;34679;51.436;-2.518;2023-07-28T02:39:09;16.30;99.90
48860;DHT22;34679;51.436;-2.518;2023-07-28T02:41:35;16.40;99.90
48860;DHT22;34679;51.436;-2.518;2023-07-28T02:44:00;16.40;99.90
48860;DHT22;34679;51.436;-2.518;2023-07-28T02:46:26;16.40;99.90
48860;DHT22;34679;51.436;-2.518;2023-07-28T02:48:52;16.40;99.90
48860;DHT22;34679;51.436;-2.518;2023-07-28T02:51:17;16.30;99.90
48860;DHT22;34679;51.436;-2.518;2023-07-28T02:53:43;16.40;99.90
48860;DHT22;34679;51.436;-2.518;2023-07-28T02:56:09;16.30;99.90
48860;DHT22;34679;51.436;-2.518;2023-07-28T02:58:34;16.40;99.90
48860;DHT22;34679;51.436;-2.518;2023-07-28T03:01:00;16.30;99.90
48860;DHT22;34679;51.436;-2.518;2023-07-28T03:03:26;16.40;99.90
48860;DHT22;34679;51.436;-2.518;2023-07-28T03:05:52;16.40;99.90
48860;DHT22;34679;51.436;-2.518;2023-07-28T03:08:20;16.40;99.90
48860;DHT22;34679;51.436;-2.518;2023-07-28T03:10:46;16.40;99.90
48860;DHT22;34679;51.436;-2.518;2023-07-28T03:13:11;16.30;99.90
48860;DHT22;34679;51.436;-2.518;2023-07-28T03:15:37;16.30;99.90
48860;DHT22;34679;51.436;-2.518;2023-07-28T03:18:03;16.30;99.90
48860;DHT22;34679;51.436;-2.518;2023-07-28T03:20:29;16.40;99.90
48860;DHT22;34679;51.436;-2.518;2023-07-28T03:22:55;16.40;99.90
48860;DHT22;34679;51.436;-2.518;2023-07-28T03:25:20;16.40;99.90
48860;DHT22;34679;51.436;-2.518;2023-07-28T03:27:46;16.40;99.90
48860;DHT22;34679;51.436;-2.518;2023-07-28T03:30:12;16.40;99.90
48860;DHT22;34679;51.436;-2.518;2023-07-28T03:32:38;16.40;99.90
48860;DHT22;34679;51.436;-2.518;2023-07-28T03:35:04;16.30;99.90
48860;DHT22;34679;51.436;-2.518;2023-07-28T03:37:31;16.40;99.90
48860;DHT22;34679;51.436;-2.518;2023-07-28T03:39:57;16.30;99.90
48860;DHT22;34679;51.436;-2.518;2023-07-28T03:42:24;16.40;99.90
48860;DHT22;34679;51.436;-2.518;2023-07-28T03:44:49;16.40;99.90
48860;DHT22;34679;51.436;-2.518;2023-07-28T03:47:15;16.30;99.90
48860;DHT22;34679;51.436;-2.518;2023-07-28T03:49:41;16.30;99.90
48860;DHT22;34679;51.436;-2.518;2023-07-28T03:52:07;16.20;99.90
48860;DHT22;34679;51.436;-2.518;2023-07-28T03:54:32;16.20;99.90
48860;DHT22;34679;51.436;-2.518;2023-07-28T03:56:58;16.20;99.90
48860;DHT22;34679;51.436;-2.518;2023-07-28T03:59:24;16.30;99.90
48860;DHT22;34679;51.436;-2.518;2023-07-28T04:01:49;16.20;99.90
48860;DHT22;34679;51.436;-2.518;2023-07-28T04:04:15;16.20;99.90
48860;DHT22;34679;51.436;-2.518;2023-07-28T04:06:45;16.20;99.90
48860;DHT22;34679;51.436;-2.518;2023-07-28T04:09:13;16.20;99.90
48860;DHT22;34679;51.436;-2.518;2023-07-28T04:11:40;16.20;99.90
48860;DHT22;34679;51.436;-2.518;2023-07-28T04:14:06;16.20;99.90
48860;DHT22;34679;51.436;-2.518;2023-07-28T04:16:31;16.20;99.90
48860;DHT22;34679;51.436;-2.518;2023-07-28T04:18:57;16.20;99.90
48860;DHT22;34679;51.436;-2.518;2023-07-28T04:21:23;16.20;99.90
48860;DHT22;34679;51.436;-2.518;2023-07-28T04:23:49;16.20;99.90
48860;DHT22;34679;51.436;-2.518;2023-07-28T04:26:15;16.20;99.90
48860;DHT22;34679;51.436;-2.518;2023-07-28T04:28:41;16.20;99.90
48860;DHT22;34679;51.436;-2.518;2023-07-28T04:31:07;16.20;99.90
48860;DHT22;34679;51.436;-2.518;2023-07-28T04:33:32;16.30;99.90
48860;DHT22;34679;51.436;-2.518;2023-07-28T04:35:59;16.30;99.90
48860;DHT22;34679;51.436;-2.518;2023-07-28T04:38:25;16.30;99.90
48860;DHT22;34679;51.436;-2.518;2023-07-28T04:40:50;16.30;99.90
48860;DHT22;34679;51.436;-2.518;2023-07-28T04:43:16;16.30;99.90
48860;DHT22;34679;51.436;-2.518;2023-07-28T04:45:42;16.30;99.90
48860;DHT22;34679;51.436;-2.518;2023-07-28T04:48:09;16.20;99.90
48860;DHT22;34679;51.436;-2.518;2023-07-28T04:50:35;16.20;99.90
48860;DHT22;34679;51.436;-2.518;2023-07-28T04:53:02;16.30;99.90
48860;DHT22;34679;51.436;-2.518;2023-07-28T04:55:27;16.30;99.90
48860;DHT22;34679;51.436;-2.518;2023-07-28T04:57:53;16.30;99.90
48860;DHT22;34679;51.436;-2.518;2023-07-28T05:00:19;16.40;99.90
48860;DHT22;34679;51.436;-2.518;2023-07-28T05:02:45;16.30;99.90
48860;DHT22;34679;51.436;-2.518;2023-07-28T05:05:10;16.30;99.90
48860;DHT22;34679;51.436;-2.518;2023-07-28T05:07:36;16.30;99.90
48860;DHT22;34679;51.436;-2.518;2023-07-28T05:10:02;16.40;99.90
48860;DHT22;34679;51.436;-2.518;2023-07-28T05:12:28;16.30;99.90
48860;DHT22;34679;51.436;-2.518;2023-07-28T05:14:54;16.40;99.90
48860;DHT22;34679;51.436;-2.518;2023-07-28T05:17:19;16.30;99.90
48860;DHT22;34679;51.436;-2.518;2023-07-28T05:19:45;16.30;99.90
48860;DHT22;34679;51.436;-2.518;2023-07-28T05:22:11;16.40;99.90
48860;DHT22;34679;51.436;-2.518;2023-07-28T05:24:36;16.40;99.90
48860;DHT22;34679;51.436;-2.518;2023-07-28T05:27:02;16.30;99.90
48860;DHT22;34679;51.436;-2.518;2023-07-28T05:29:28;16.40;99.90
48860;DHT22;34679;51.436;-2.518;2023-07-28T05:31:53;16.40;99.90
48860;DHT22;34679;51.436;-2.518;2023-07-28T05:34:19;16.50;99.90
48860;DHT22;34679;51.436;-2.518;2023-07-28T05:36:45;16.50;99.90
48860;DHT22;34679;51.436;-2.518;2023-07-28T05:39:10;16.60;99.90
48860;DHT22;34679;51.436;-2.518;2023-07-28T05:41:37;16.60;99.90
48860;DHT22;34679;51.436;-2.518;2023-07-28T05:44:03;16.70;99.90
48860;DHT22;34679;51.436;-2.518;2023-07-28T05:46:29;16.70;99.90
48860;DHT22;34679;51.436;-2.518;2023-07-28T05:48:55;16.70;99.90
48860;DHT22;34679;51.436;-2.518;2023-07-28T05:51:22;16.90;99.90
48860;DHT22;34679;51.436;-2.518;2023-07-28T05:53:48;17.00;99.90
48860;DHT22;34679;51.436;-2.518;2023-07-28T05:56:14;17.10;99.90
48860;DHT22;34679;51.436;-2.518;2023-07-28T05:58:40;17.20;99.90
48860;DHT22;34679;51.436;-2.518;2023-07-28T06:01:06;17.20;99.90
48860;DHT22;34679;51.436;-2.518;2023-07-28T06:03:32;17.30;99.90
48860;DHT22;34679;51.436;-2.518;2023-07-28T06:05:57;17.40;99.90
48860;DHT22;34679;51.436;-2.518;2023-07-28T06:08:23;17.50;99.90
48860;DHT22;34679;51.436;-2.518;2023-07-28T06:10:49;17.60;99.90
48860;DHT22;34679;51.436;-2.518;2023-07-28T06:13:14;17.70;99.90
48860;DHT22;34679;51.436;-2.518;2023-07-28T06:15:41;17.90;99.90
48860;DHT22;34679;51.436;-2.518;2023-07-28T06:18:07;18.10;99.90
48860;DHT22;34679;51.436;-2.518;2023-07-28T06:20:33;18.20;99.90
48860;DHT22;34679;51.436;-2.518;2023-07-28T06:23:00;18.30;99.90
48860;DHT22;34679;51.436;-2.518;2023-07-28T06:25:26;18.50;99.90
48860;DHT22;34679;51.436;-2.518;2023-07-28T06:27:51;18.60;99.90
48860;DHT22;34679;51.436;-2.518;2023-07-28T06:30:17;18.80;99.90
48860;DHT22;34679;51.436;-2.518;2023-07-28T06:32:43;18.90;99.90
48860;DHT22;34679;51.436;-2.518;2023-07-28T06:35:09;18.90;99.90
48860;DHT22;34679;51.436;-2.518;2023-07-28T06:37:38;18.90;99.90
48860;DHT22;34679;51.436;-2.518;2023-07-28T06:40:05;19.10;99.90
48860;DHT22;34679;51.436;-2.518;2023-07-28T06:42:33;19.50;99.90
48860;DHT22;34679;51.436;-2.518;2023-07-28T06:44:59;19.80;99.90
48860;DHT22;34679;51.436;-2.518;2023-07-28T06:47:25;20.00;99.90
48860;DHT22;34679;51.436;-2.518;2023-07-28T06:49:51;20.10;99.90
48860;DHT22;34679;51.436;-2.518;2023-07-28T06:52:16;20.10;99.90
48860;DHT22;34679;51.436;-2.518;2023-07-28T06:54:42;20.00;99.90
48860;DHT22;34679;51.436;-2.518;2023-07-28T06:57:08;20.00;99.90
48860;DHT22;34679;51.436;-2.518;2023-07-28T06:59:34;20.10;99.90
48860;DHT22;34679;51.436;-2.518;2023-07-28T07:02:00;20.00;99.90
48860;DHT22;34679;51.436;-2.518;2023-07-28T07:04:25;19.80;99.90
48860;DHT22;34679;51.436;-2.518;2023-07-28T07:06:51;19.70;99.90
48860;DHT22;34679;51.436;-2.518;2023-07-28T07:09:17;19.60;99.90
48860;DHT22;34679;51.436;-2.518;2023-07-28T07:11:42;19.50;99.90
48860;DHT22;34679;51.436;-2.518;2023-07-28T07:14:08;19.40;99.90
48860;DHT22;34679;51.436;-2.518;2023-07-28T07:16:34;19.40;99.90
48860;DHT22;34679;51.436;-2.518;2023-07-28T07:19:00;19.50;99.90
48860;DHT22;34679;51.436;-2.518;2023-07-28T07:21:27;19.30;99.90
48860;DHT22;34679;51.436;-2.518;2023-07-28T07:23:53;19.50;99.90
48860;DHT22;34679;51.436;-2.518;2023-07-28T07:26:19;19.30;99.90
48860;DHT22;34679;51.436;-2.518;2023-07-28T07:28:45;19.70;99.90
48860;DHT22;34679;51.436;-2.518;2023-07-28T07:31:14;20.20;99.90
48860;DHT22;34679;51.436;-2.518;2023-07-28T07:33:41;20.80;99.90
48860;DHT22;34679;51.436;-2.518;2023-07-28T07:36:12;21.60;99.90
48860;DHT22;34679;51.436;-2.518;2023-07-28T07:38:39;22.30;99.90
48860;DHT22;34679;51.436;-2.518;2023-07-28T07:41:06;22.70;99.90
48860;DHT22;34679;51.436;-2.518;2023-07-28T07:43:33;23.10;99.90
48860;DHT22;34679;51.436;-2.518;2023-07-28T07:45:59;23.40;99.90
48860;DHT22;34679;51.436;-2.518;2023-07-28T07:48:24;23.10;99.90
48860;DHT22;34679;51.436;-2.518;2023-07-28T07:50:51;23.50;99.90
48860;DHT22;34679;51.436;-2.518;2023-07-28T07:53:17;24.50;99.90
48860;DHT22;34679;51.436;-2.518;2023-07-28T07:55:42;24.80;99.90
48860;DHT22;34679;51.436;-2.518;2023-07-28T07:58:08;25.00;99.90
48860;DHT22;34679;51.436;-2.518;2023-07-28T08:00:35;25.20;99.90
48860;DHT22;34679;51.436;-2.518;2023-07-28T08:03:01;26.30;99.90
48860;DHT22;34679;51.436;-2.518;2023-07-28T08:05:27;27.00;99.90
48860;DHT22;34679;51.436;-2.518;2023-07-28T08:07:53;27.50;99.90
48860;DHT22;34679;51.436;-2.518;2023-07-28T08:10:20;27.90;99.90
48860;DHT22;34679;51.436;-2.518;2023-07-28T08:12:46;28.30;99.90
48860;DHT22;34679;51.436;-2.518;2023-07-28T08:15:13;28.30;99.90
48860;DHT22;34679;51.436;-2.518;2023-07-28T08:17:39;28.40;99.90
48860;DHT22;34679;51.436;-2.518;2023-07-28T08:20:09;27.90;99.90
48860;DHT22;34679;51.436;-2.518;2023-07-28T08:22:35;26.40;99.90
48860;DHT22;34679;51.436;-2.518;2023-07-28T08:25:00;26.20;99.90
48860;DHT22;34679;51.436;-2.518;2023-07-28T08:27:26;26.20;99.90
48860;DHT22;34679;51.436;-2.518;2023-07-28T08:29:52;26.80;99.90
48860;DHT22;34679;51.436;-2.518;2023-07-28T08:32:17;27.00;99.90
48860;DHT22;34679;51.436;-2.518;2023-07-28T08:34:43;26.10;99.90
48860;DHT22;34679;51.436;-2.518;2023-07-28T08:37:09;26.20;99.90
48860;DHT22;34679;51.436;-2.518;2023-07-28T08:39:34;26.40;99.90
48860;DHT22;34679;51.436;-2.518;2023-07-28T08:42:01;26.90;99.90
48860;DHT22;34679;51.436;-2.518;2023-07-28T08:44:31;27.40;99.90
48860;DHT22;34679;51.436;-2.518;2023-07-28T08:46:58;27.90;99.90
48860;DHT22;34679;51.436;-2.518;2023-07-28T08:49:24;26.20;99.90
48860;DHT22;34679;51.436;-2.518;2023-07-28T08:51:57;25.60;99.90
48860;DHT22;34679;51.436;-2.518;2023-07-28T08:54:23;26.10;99.90
48860;DHT22;34679;51.436;-2.518;2023-07-28T08:56:49;26.20;99.90
48860;DHT22;34679;51.436;-2.518;2023-07-28T08:59:28;26.00;99.90
48860;DHT22;34679;51.436;-2.518;2023-07-28T09:01:55;25.60;99.90
48860;DHT22;34679;51.436;-2.518;2023-07-28T09:04:21;25.20;99.90
48860;DHT22;34679;51.436;-2.518;2023-07-28T09:06:48;25.10;99.90
48860;DHT22;34679;51.436;-2.518;2023-07-28T09:09:15;24.70;99.90
48860;DHT22;34679;51.436;-2.518;2023-07-28T09:11:45;24.40;99.90
48860;DHT22;34679;51.436;-2.518;2023-07-28T09:14:15;24.50;99.90
48860;DHT22;34679;51.436;-2.518;2023-07-28T09:16:45;24.70;99.90
48860;DHT22;34679;51.436;-2.518;2023-07-28T09:19:11;25.10;99.90
48860;DHT22;34679;51.436;-2.518;2023-07-28T09:21:39;25.20;99.90
48860;DHT22;34679;51.436;-2.518;2023-07-28T09:24:14;25.50;99.90
48860;DHT22;34679;51.436;-2.518;2023-07-28T09:26:47;26.30;99.90
48860;DHT22;34679;51.436;-2.518;2023-07-28T09:29:16;26.60;99.90
48860;DHT22;34679;51.436;-2.518;2023-07-28T09:31:42;26.40;99.90
48860;DHT22;34679;51.436;-2.518;2023-07-28T09:34:09;26.00;99.90
48860;DHT22;34679;51.436;-2.518;2023-07-28T09:36:36;25.80;99.90
48860;DHT22;34679;51.436;-2.518;2023-07-28T09:39:04;25.20;99.90
48860;DHT22;34679;51.436;-2.518;2023-07-28T09:41:37;25.10;99.90
48860;DHT22;34679;51.436;-2.518;2023-07-28T09:44:04;24.70;99.90
48860;DHT22;34679;51.436;-2.518;2023-07-28T09:46:33;24.40;99.90
48860;DHT22;34679;51.436;-2.518;2023-07-28T09:49:05;24.50;99.90
48860;DHT22;34679;51.436;-2.518;2023-07-28T09:51:34;24.70;99.90
48860;DHT22;34679;51.436;-2.518;2023-07-28T09:54:05;25.10;99.90
48860;DHT22;34679;51.436;-2.518;2023-07-28T09:56:32;25.10;99.90
48860;DHT22;34679;51.436;-2.518;2023-07-28T09:58:59;24.90;99.90
48860;DHT22;34679;51.436;-2.518;2023-07-28T10:01:27;24.90;99.90
48860;DHT22;34679;51.436;-2.518;2023-07-28T10:03:53;25.40;99.90
48860;DHT22;34679;51.436;-2.518;2023-07-28T10:06:20;25.80;99.90
48860;DHT22;34679;51.436;-2.518;2023-07-28T10:08:48;25.80;99.90
48860;DHT22;34679;51.436;-2.518;2023-07-28T10:11:15;25.70;99.90
48860;DHT22;34679;51.436;-2.518;2023-07-28T10:13:43;25.50;99.90
48860;DHT22;34679;51.436;-2.518;2023-07-28T10:16:10;25.00;99.90
48860;DHT22;34679;51.436;-2.518;2023-07-28T10:18:36;24.50;99.90
48860;DHT22;34679;51.436;-2.518;2023-07-28T10:21:10;24.30;99.90
48860;DHT22;34679;51.436;-2.518;2023-07-28T10:23:39;23.90;99.90
48860;DHT22;34679;51.436;-2.518;2023-07-28T10:26:05;23.30;99.90
48860;DHT22;34679;51.436;-2.518;2023-07-28T10:28:36;23.40;99.90
48860;DHT22;34679;51.436;-2.518;2023-07-28T10:31:05;23.50;99.90
48860;DHT22;34679;51.436;-2.518;2023-07-28T10:33:39;23.50;99.90
48860;DHT22;34679;51.436;-2.518;2023-07-28T10:38:59;23.70;99.90
48860;DHT22;34679;51.436;-2.518;2023-07-28T10:41:25;23.90;99.90
48860;DHT22;34679;51.436;-2.518;2023-07-28T10:43:51;24.20;99.90
48860;DHT22;34679;51.436;-2.518;2023-07-28T10:46:20;24.40;99.90
48860;DHT22;34679;51.436;-2.518;2023-07-28T10:48:48;24.90;99.90
48860;DHT22;34679;51.436;-2.518;2023-07-28T10:53:50;25.60;99.90
48860;DHT22;34679;51.436;-2.518;2023-07-28T10:56:16;26.10;99.90
48860;DHT22;34679;51.436;-2.518;2023-07-28T10:58:41;26.40;99.90
48860;DHT22;34679;51.436;-2.518;2023-07-28T11:01:07;26.50;99.90
48860;DHT22;34679;51.436;-2.518;2023-07-28T11:03:33;26.00;99.90
48860;DHT22;34679;51.436;-2.518;2023-07-28T11:05:58;25.90;99.90
48860;DHT22;34679;51.436;-2.518;2023-07-28T11:08:25;25.50;99.90
48860;DHT22;34679;51.436;-2.518;2023-07-28T11:10:52;25.50;99.90
48860;DHT22;34679;51.436;-2.518;2023-07-28T11:13:17;25.30;99.90
48860;DHT22;34679;51.436;-2.518;2023-07-28T11:15:43;25.10;99.90
48860;DHT22;34679;51.436;-2.518;2023-07-28T11:18:09;25.00;99.90
48860;DHT22;34679;51.436;-2.518;2023-07-28T11:20:35;24.70;99.90
48860;DHT22;34679;51.436;-2.518;2023-07-28T11:23:02;24.60;99.90
48860;DHT22;34679;51.436;-2.518;2023-07-28T11:25:32;24.90;99.90
48860;DHT22;34679;51.436;-2.518;2023-07-28T11:28:01;24.90;99.90
48860;DHT22;34679;51.436;-2.518;2023-07-28T11:30:28;25.10;99.90
48860;DHT22;34679;51.436;-2.518;2023-07-28T11:32:54;25.00;99.90
48860;DHT22;34679;51.436;-2.518;2023-07-28T11:35:21;24.70;99.90
48860;DHT22;34679;51.436;-2.518;2023-07-28T11:37:49;24.20;99.90
48860;DHT22;34679;51.436;-2.518;2023-07-28T11:40:18;23.90;99.90
48860;DHT22;34679;51.436;-2.518;2023-07-28T11:42:48;23.70;99.90
48860;DHT22;34679;51.436;-2.518;2023-07-28T11:45:16;23.90;99.90
48860;DHT22;34679;51.436;-2.518;2023-07-28T11:50:28;24.00;99.90
48860;DHT22;34679;51.436;-2.518;2023-07-28T11:52:55;24.30;99.90
48860;DHT22;34679;51.436;-2.518;2023-07-28T11:55:22;24.80;99.90
48860;DHT22;34679;51.436;-2.518;2023-07-28T11:57:48;25.10;99.90
48860;DHT22;34679;51.436;-2.518;2023-07-28T12:00:14;25.10;99.90
48860;DHT22;34679;51.436;-2.518;2023-07-28T12:02:42;25.10;99.90
48860;DHT22;34679;51.436;-2.518;2023-07-28T12:05:15;25.30;99.90
48860;DHT22;34679;51.436;-2.518;2023-07-28T12:07:47;25.20;99.90
48860;DHT22;34679;51.436;-2.518;2023-07-28T12:10:13;25.20;99.90
48860;DHT22;34679;51.436;-2.518;2023-07-28T12:12:44;25.00;99.90
48860;DHT22;34679;51.436;-2.518;2023-07-28T12:15:24;25.10;99.90
48860;DHT22;34679;51.436;-2.518;2023-07-28T12:20:26;25.50;99.90
48860;DHT22;34679;51.436;-2.518;2023-07-28T12:22:52;25.30;99.90
48860;DHT22;34679;51.436;-2.518;2023-07-28T12:25:17;25.00;99.90
48860;DHT22;34679;51.436;-2.518;2023-07-28T12:27:43;24.80;99.90
48860;DHT22;34679;51.436;-2.518;2023-07-28T12:30:09;24.40;99.90
48860;DHT22;34679;51.436;-2.518;2023-07-28T12:32:35;24.30;99.90
48860;DHT22;34679;51.436;-2.518;2023-07-28T12:35:01;24.10;99.90
48860;DHT22;34679;51.436;-2.518;2023-07-28T12:37:27;23.90;99.90
48860;DHT22;34679;51.436;-2.518;2023-07-28T12:39:53;23.90;99.90
48860;DHT22;34679;51.436;-2.518;2023-07-28T12:42:18;23.80;99.90
48860;DHT22;34679;51.436;-2.518;2023-07-28T12:44:45;24.20;99.90
48860;DHT22;34679;51.436;-2.518;2023-07-28T12:47:11;24.10;99.90
48860;DHT22;34679;51.436;-2.518;2023-07-28T12:49:37;24.10;99.90
48860;DHT22;34679;51.436;-2.518;2023-07-28T12:52:05;24.20;99.90
48860;DHT22;34679;51.436;-2.518;2023-07-28T12:54:32;24.20;99.90
48860;DHT22;34679;51.436;-2.518;2023-07-28T12:56:58;24.50;99.90
48860;DHT22;34679;51.436;-2.518;2023-07-28T12:59:24;24.80;99.90
48860;DHT22;34679;51.436;-2.518;2023-07-28T13:01:50;25.10;99.90
48860;DHT22;34679;51.436;-2.518;2023-07-28T13:04:15;25.50;99.90
48860;DHT22;34679;51.436;-2.518;2023-07-28T13:06:41;25.70;99.90
48860;DHT22;34679;51.436;-2.518;2023-07-28T13:09:07;25.60;99.90
48860;DHT22;34679;51.436;-2.518;2023-07-28T13:11:35;25.40;99.90
48860;DHT22;34679;51.436;-2.518;2023-07-28T13:14:02;25.20;99.90
48860;DHT22;34679;51.436;-2.518;2023-07-28T13:16:28;25.40;99.90
48860;DHT22;34679;51.436;-2.518;2023-07-28T13:18:53;25.70;99.90
48860;DHT22;34679;51.436;-2.518;2023-07-28T13:21:19;25.70;99.90
48860;DHT22;34679;51.436;-2.518;2023-07-28T13:23:45;25.70;99.90
48860;DHT22;34679;51.436;-2.518;2023-07-28T13:26:10;25.80;99.90
48860;DHT22;34679;51.436;-2.518;2023-07-28T13:28:36;25.80;99.90
48860;DHT22;34679;51.436;-2.518;2023-07-28T13:31:02;25.70;99.90
48860;DHT22;34679;51.436;-2.518;2023-07-28T13:33:30;25.70;99.90
48860;DHT22;34679;51.436;-2.518;2023-07-28T13:35:56;25.60;99.90
48860;DHT22;34679;51.436;-2.518;2023-07-28T13:38:22;25.60;99.90
48860;DHT22;34679;51.436;-2.518;2023-07-28T13:40:47;25.60;99.90
48860;DHT22;34679;51.436;-2.518;2023-07-28T13:43:13;25.30;99.90
48860;DHT22;34679;51.436;-2.518;2023-07-28T13:45:39;25.30;99.90
48860;DHT22;34679;51.436;-2.518;2023-07-28T13:48:04;25.10;99.90
48860;DHT22;34679;51.436;-2.518;2023-07-28T13:50:30;24.80;99.90
48860;DHT22;34679;51.436;-2.518;2023-07-28T13:52:56;24.60;99.90
48860;DHT22;34679;51.436;-2.518;2023-07-28T13:55:22;24.30;99.90
48860;DHT22;34679;51.436;-2.518;2023-07-28T13:57:48;24.20;99.90
48860;DHT22;34679;51.436;-2.518;2023-07-28T14:00:14;24.20;99.90
48860;DHT22;34679;51.436;-2.518;2023-07-28T14:02:40;24.30;99.90
48860;DHT22;34679;51.436;-2.518;2023-07-28T14:05:07;24.30;99.90
48860;DHT22;34679;51.436;-2.518;2023-07-28T14:07:33;24.20;99.90
48860;DHT22;34679;51.436;-2.518;2023-07-28T14:10:00;24.20;99.90
48860;DHT22;34679;51.436;-2.518;2023-07-28T14:12:26;24.10;99.90
48860;DHT22;34679;51.436;-2.518;2023-07-28T14:14:52;23.90;99.90
48860;DHT22;34679;51.436;-2.518;2023-07-28T14:17:17;23.80;99.90
48860;DHT22;34679;51.436;-2.518;2023-07-28T14:19:43;23.70;99.90
48860;DHT22;34679;51.436;-2.518;2023-07-28T14:22:09;23.70;99.90
48860;DHT22;34679;51.436;-2.518;2023-07-28T14:24:34;23.50;99.90
48860;DHT22;34679;51.436;-2.518;2023-07-28T14:27:00;23.40;99.90
48860;DHT22;34679;51.436;-2.518;2023-07-28T14:29:26;23.20;99.90
48860;DHT22;34679;51.436;-2.518;2023-07-28T14:31:52;23.10;99.90
48860;DHT22;34679;51.436;-2.518;2023-07-28T14:34:18;22.60;99.90
48860;DHT22;34679;51.436;-2.518;2023-07-28T14:36:43;22.40;99.90
48860;DHT22;34679;51.436;-2.518;2023-07-28T14:39:09;22.30;99.90
48860;DHT22;34679;51.436;-2.518;2023-07-28T14:41:35;22.40;99.90
48860;DHT22;34679;51.436;-2.518;2023-07-28T14:44:01;22.50;99.90
48860;DHT22;34679;51.436;-2.518;2023-07-28T14:46:27;22.80;99.90
48860;DHT22;34679;51.436;-2.518;2023-07-28T14:48:53;23.10;99.90
48860;DHT22;34679;51.436;-2.518;2023-07-28T14:51:20;23.30;99.90
48860;DHT22;34679;51.436;-2.518;2023-07-28T14:53:46;23.40;99.90
48860;DHT22;34679;51.436;-2.518;2023-07-28T14:56:12;23.30;99.90
48860;DHT22;34679;51.436;-2.518;2023-07-28T14:58:39;23.50;99.90
48860;DHT22;34679;51.436;-2.518;2023-07-28T15:01:07;23.80;99.90
48860;DHT22;34679;51.436;-2.518;2023-07-28T15:03:33;23.70;99.90
48860;DHT22;34679;51.436;-2.518;2023-07-28T15:06:00;23.60;99.90
48860;DHT22;34679;51.436;-2.518;2023-07-28T15:08:26;23.50;99.90
48860;DHT22;34679;51.436;-2.518;2023-07-28T15:10:52;23.70;99.90
48860;DHT22;34679;51.436;-2.518;2023-07-28T15:13:19;23.60;99.90
48860;DHT22;34679;51.436;-2.518;2023-07-28T15:15:45;23.70;99.90
48860;DHT22;34679;51.436;-2.518;2023-07-28T15:18:12;23.80;99.90
48860;DHT22;34679;51.436;-2.518;2023-07-28T15:20:39;24.10;99.90
48860;DHT22;34679;51.436;-2.518;2023-07-28T15:23:05;24.10;99.90
48860;DHT22;34679;51.436;-2.518;2023-07-28T15:25:31;24.40;99.90